sensor_id;sensor_type;location;lat;lon;timestamp;P1;durP1;ratioP1;P2;durP2;ratioP2
26920;SDS011;14483;47.844;9.660;2023-03-12T00:02:06;14.55;;;6.13;;
26920;SDS011;14483;47.844;9.660;2023-03-12T00:04:33;11.07;;;5.97;;
26920;SDS011;14483;47.844;9.660;2023-03-12T00:07:01;10.75;;;5.75;;
26920;SDS011;14483;47.844;9.660;2023-03-12T00:09:27;12.57;;;5.45;;
26920;SDS011;14483;47.844;9.660;2023-03-12T00:11:54;9.23;;;5.07;;
26920;SDS011;14483;47.844;9.660;2023-03-12T00:14:20;10.27;;;5.15;;
26920;SDS011;14483;47.844;9.660;2023-03-12T00:16:46;7.75;;;4.35;;
26920;SDS011;14483;47.844;9.660;2023-03-12T00:19:13;9.23;;;4.78;;
26920;SDS011;14483;47.844;9.660;2023-03-12T00:21:40;8.52;;;4.63;;
26920;SDS011;14483;47.844;9.660;2023-03-12T00:24:07;10.55;;;4.50;;
26920;SDS011;14483;47.844;9.660;2023-03-12T00:26:33;10.15;;;5.20;;
26920;SDS011;14483;47.844;9.660;2023-03-12T00:29:00;9.35;;;5.60;;
26920;SDS011;14483;47.844;9.660;2023-03-12T00:31:27;10.98;;;5.32;;
26920;SDS011;14483;47.844;9.660;2023-03-12T00:33:54;7.45;;;4.38;;
26920;SDS011;14483;47.844;9.660;2023-03-12T00:36:21;9.25;;;5.10;;
26920;SDS011;14483;47.844;9.660;2023-03-12T00:38:50;8.70;;;5.10;;
26920;SDS011;14483;47.844;9.660;2023-03-12T00:41:17;9.43;;;5.28;;
26920;SDS011;14483;47.844;9.660;2023-03-12T00:43:44;7.82;;;4.97;;
26920;SDS011;14483;47.844;9.660;2023-03-12T00:46:10;11.32;;;5.30;;
26920;SDS011;14483;47.844;9.660;2023-03-12T00:48:36;9.95;;;5.35;;
26920;SDS011;14483;47.844;9.660;2023-03-12T00:51:03;10.57;;;6.03;;
26920;SDS011;14483;47.844;9.660;2023-03-12T00:53:29;11.82;;;5.82;;
26920;SDS011;14483;47.844;9.660;2023-03-12T00:55:57;9.95;;;6.20;;
26920;SDS011;14483;47.844;9.660;2023-03-12T00:58:23;10.48;;;5.78;;
26920;SDS011;14483;47.844;9.660;2023-03-12T01:00:49;12.48;;;5.68;;
26920;SDS011;14483;47.844;9.660;2023-03-12T01:03:16;10.82;;;6.38;;
26920;SDS011;14483;47.844;9.660;2023-03-12T01:05:42;11.07;;;5.68;;
26920;SDS011;14483;47.844;9.660;2023-03-12T01:08:10;12.20;;;5.95;;
26920;SDS011;14483;47.844;9.660;2023-03-12T01:10:40;11.60;;;5.45;;
26920;SDS011;14483;47.844;9.660;2023-03-12T01:13:08;9.70;;;5.45;;
26920;SDS011;14483;47.844;9.660;2023-03-12T01:15:34;8.35;;;5.53;;
26920;SDS011;14483;47.844;9.660;2023-03-12T01:18:00;10.23;;;5.53;;
26920;SDS011;14483;47.844;9.660;2023-03-12T01:20:27;9.02;;;5.53;;
26920;SDS011;14483;47.844;9.660;2023-03-12T01:22:53;8.82;;;4.80;;
26920;SDS011;14483;47.844;9.660;2023-03-12T01:25:19;8.93;;;5.43;;
26920;SDS011;14483;47.844;9.660;2023-03-12T01:27:46;8.93;;;4.60;;
26920;SDS011;14483;47.844;9.660;2023-03-12T01:30:14;8.63;;;4.93;;
26920;SDS011;14483;47.844;9.660;2023-03-12T01:32:40;8.88;;;5.05;;
26920;SDS011;14483;47.844;9.660;2023-03-12T01:35:07;9.85;;;5.07;;
26920;SDS011;14483;47.844;9.660;2023-03-12T01:37:33;7.60;;;4.40;;
26920;SDS011;14483;47.844;9.660;2023-03-12T01:39:59;9.15;;;5.15;;
26920;SDS011;14483;47.844;9.660;2023-03-12T01:42:26;9.25;;;5.28;;
26920;SDS011;14483;47.844;9.660;2023-03-12T01:44:53;13.13;;;5.13;;
26920;SDS011;14483;47.844;9.660;2023-03-12T01:47:21;8.50;;;4.90;;
26920;SDS011;14483;47.844;9.660;2023-03-12T01:49:47;10.55;;;5.40;;
26920;SDS011;14483;47.844;9.660;2023-03-12T01:52:15;14.13;;;6.82;;
26920;SDS011;14483;47.844;9.660;2023-03-12T01:54:42;13.25;;;6.60;;
26920;SDS011;14483;47.844;9.660;2023-03-12T01:57:11;12.20;;;6.82;;
26920;SDS011;14483;47.844;9.660;2023-03-12T01:59:40;14.70;;;7.05;;
26920;SDS011;14483;47.844;9.660;2023-03-12T02:02:08;14.40;;;7.32;;
26920;SDS011;14483;47.844;9.660;2023-03-12T02:04:36;12.50;;;6.32;;
26920;SDS011;14483;47.844;9.660;2023-03-12T02:07:04;11.75;;;6.63;;
26920;SDS011;14483;47.844;9.660;2023-03-12T02:09:31;12.23;;;7.35;;
26920;SDS011;14483;47.844;9.660;2023-03-12T02:11:57;10.65;;;6.13;;
26920;SDS011;14483;47.844;9.660;2023-03-12T02:14:24;10.88;;;6.35;;
26920;SDS011;14483;47.844;9.660;2023-03-12T02:16:52;10.98;;;5.97;;
26920;SDS011;14483;47.844;9.660;2023-03-12T02:19:24;10.45;;;5.90;;
26920;SDS011;14483;47.844;9.660;2023-03-12T02:21:57;11.32;;;6.45;;
26920;SDS011;14483;47.844;9.660;2023-03-12T02:24:25;12.68;;;6.30;;
26920;SDS011;14483;47.844;9.660;2023-03-12T02:26:54;13.10;;;7.07;;
26920;SDS011;14483;47.844;9.660;2023-03-12T02:29:21;12.68;;;7.28;;
26920;SDS011;14483;47.844;9.660;2023-03-12T02:31:50;13.15;;;6.90;;
26920;SDS011;14483;47.844;9.660;2023-03-12T02:34:18;13.52;;;6.68;;
26920;SDS011;14483;47.844;9.660;2023-03-12T02:36:44;13.02;;;7.40;;
26920;SDS011;14483;47.844;9.660;2023-03-12T02:39:11;12.82;;;6.88;;
26920;SDS011;14483;47.844;9.660;2023-03-12T02:41:38;13.40;;;7.18;;
26920;SDS011;14483;47.844;9.660;2023-03-12T02:44:08;13.00;;;8.15;;
26920;SDS011;14483;47.844;9.660;2023-03-12T02:46:36;14.23;;;8.20;;
26920;SDS011;14483;47.844;9.660;2023-03-12T02:49:05;11.15;;;7.10;;
26920;SDS011;14483;47.844;9.660;2023-03-12T02:51:31;12.55;;;7.70;;
26920;SDS011;14483;47.844;9.660;2023-03-12T02:53:57;12.85;;;7.38;;
26920;SDS011;14483;47.844;9.660;2023-03-12T02:56:24;13.18;;;7.40;;
26920;SDS011;14483;47.844;9.660;2023-03-12T02:58:51;13.15;;;7.43;;
26920;SDS011;14483;47.844;9.660;2023-03-12T03:01:19;14.07;;;7.55;;
26920;SDS011;14483;47.844;9.660;2023-03-12T03:03:46;15.75;;;7.05;;
26920;SDS011;14483;47.844;9.660;2023-03-12T03:06:12;13.80;;;7.65;;
26920;SDS011;14483;47.844;9.660;2023-03-12T03:08:38;13.85;;;7.45;;
26920;SDS011;14483;47.844;9.660;2023-03-12T03:11:05;13.88;;;7.30;;
26920;SDS011;14483;47.844;9.660;2023-03-12T03:13:31;14.30;;;7.88;;
26920;SDS011;14483;47.844;9.660;2023-03-12T03:15:58;13.98;;;8.45;;
26920;SDS011;14483;47.844;9.660;2023-03-12T03:18:27;9.68;;;5.88;;
26920;SDS011;14483;47.844;9.660;2023-03-12T03:20:54;11.13;;;5.60;;
26920;SDS011;14483;47.844;9.660;2023-03-12T03:23:21;9.90;;;5.28;;
26920;SDS011;14483;47.844;9.660;2023-03-12T03:25:47;7.53;;;4.05;;
26920;SDS011;14483;47.844;9.660;2023-03-12T03:28:13;6.55;;;3.50;;
26920;SDS011;14483;47.844;9.660;2023-03-12T03:30:40;6.65;;;3.75;;
26920;SDS011;14483;47.844;9.660;2023-03-12T03:33:06;7.55;;;3.47;;
26920;SDS011;14483;47.844;9.660;2023-03-12T03:35:34;6.15;;;3.17;;
26920;SDS011;14483;47.844;9.660;2023-03-12T03:38:00;5.72;;;3.10;;
26920;SDS011;14483;47.844;9.660;2023-03-12T03:40:27;5.00;;;2.90;;
26920;SDS011;14483;47.844;9.660;2023-03-12T03:42:53;6.50;;;2.60;;
26920;SDS011;14483;47.844;9.660;2023-03-12T03:45:20;5.65;;;3.38;;
26920;SDS011;14483;47.844;9.660;2023-03-12T03:47:46;6.18;;;3.15;;
26920;SDS011;14483;47.844;9.660;2023-03-12T03:50:12;5.57;;;2.83;;
26920;SDS011;14483;47.844;9.660;2023-03-12T03:52:40;4.60;;;2.65;;
26920;SDS011;14483;47.844;9.660;2023-03-12T03:55:07;4.85;;;2.53;;
26920;SDS011;14483;47.844;9.660;2023-03-12T03:57:33;3.97;;;2.17;;
26920;SDS011;14483;47.844;9.660;2023-03-12T04:00:00;5.78;;;3.45;;
26920;SDS011;14483;47.844;9.660;2023-03-12T04:02:26;5.70;;;3.20;;
26920;SDS011;14483;47.844;9.660;2023-03-12T04:04:55;4.70;;;2.70;;
26920;SDS011;14483;47.844;9.660;2023-03-12T04:07:22;4.93;;;2.65;;
26920;SDS011;14483;47.844;9.660;2023-03-12T04:09:49;3.83;;;2.25;;
26920;SDS011;14483;47.844;9.660;2023-03-12T04:12:16;4.30;;;2.63;;
26920;SDS011;14483;47.844;9.660;2023-03-12T04:14:42;5.00;;;2.90;;
26920;SDS011;14483;47.844;9.660;2023-03-12T04:17:09;6.13;;;2.60;;
26920;SDS011;14483;47.844;9.660;2023-03-12T04:19:35;4.55;;;2.30;;
26920;SDS011;14483;47.844;9.660;2023-03-12T04:22:02;5.80;;;2.55;;
26920;SDS011;14483;47.844;9.660;2023-03-12T04:24:29;3.25;;;2.00;;
26920;SDS011;14483;47.844;9.660;2023-03-12T04:26:57;4.30;;;2.15;;
26920;SDS011;14483;47.844;9.660;2023-03-12T04:29:24;4.13;;;2.05;;
26920;SDS011;14483;47.844;9.660;2023-03-12T04:31:50;3.60;;;1.70;;
26920;SDS011;14483;47.844;9.660;2023-03-12T04:34:16;5.65;;;1.88;;
26920;SDS011;14483;47.844;9.660;2023-03-12T04:36:43;5.07;;;2.15;;
26920;SDS011;14483;47.844;9.660;2023-03-12T04:39:09;3.53;;;1.85;;
26920;SDS011;14483;47.844;9.660;2023-03-12T04:41:35;3.47;;;1.70;;
26920;SDS011;14483;47.844;9.660;2023-03-12T04:44:04;3.60;;;1.50;;
26920;SDS011;14483;47.844;9.660;2023-03-12T04:46:30;3.97;;;1.20;;
26920;SDS011;14483;47.844;9.660;2023-03-12T04:48:57;4.05;;;1.40;;
26920;SDS011;14483;47.844;9.660;2023-03-12T04:51:26;3.53;;;1.33;;
26920;SDS011;14483;47.844;9.660;2023-03-12T04:53:52;1.98;;;1.05;;
26920;SDS011;14483;47.844;9.660;2023-03-12T04:56:19;2.80;;;1.30;;
26920;SDS011;14483;47.844;9.660;2023-03-12T04:58:45;2.20;;;1.00;;
26920;SDS011;14483;47.844;9.660;2023-03-12T05:01:18;2.20;;;1.10;;
26920;SDS011;14483;47.844;9.660;2023-03-12T05:03:46;2.85;;;1.10;;
26920;SDS011;14483;47.844;9.660;2023-03-12T05:06:12;2.03;;;1.02;;
26920;SDS011;14483;47.844;9.660;2023-03-12T05:08:39;2.70;;;1.27;;
26920;SDS011;14483;47.844;9.660;2023-03-12T05:11:05;3.40;;;1.30;;
26920;SDS011;14483;47.844;9.660;2023-03-12T05:13:32;3.25;;;1.40;;
26920;SDS011;14483;47.844;9.660;2023-03-12T05:15:58;3.42;;;1.60;;
26920;SDS011;14483;47.844;9.660;2023-03-12T05:18:26;3.00;;;1.30;;
26920;SDS011;14483;47.844;9.660;2023-03-12T05:20:59;2.63;;;1.48;;
26920;SDS011;14483;47.844;9.660;2023-03-12T05:23:26;3.38;;;1.52;;
26920;SDS011;14483;47.844;9.660;2023-03-12T05:25:52;2.97;;;1.35;;
26920;SDS011;14483;47.844;9.660;2023-03-12T05:28:19;2.85;;;1.30;;
26920;SDS011;14483;47.844;9.660;2023-03-12T05:30:45;3.38;;;1.17;;
26920;SDS011;14483;47.844;9.660;2023-03-12T05:33:12;2.78;;;1.63;;
26920;SDS011;14483;47.844;9.660;2023-03-12T05:35:39;2.67;;;1.35;;
26920;SDS011;14483;47.844;9.660;2023-03-12T05:38:06;2.47;;;1.40;;
26920;SDS011;14483;47.844;9.660;2023-03-12T05:40:32;2.38;;;1.10;;
26920;SDS011;14483;47.844;9.660;2023-03-12T05:42:58;4.25;;;1.38;;
26920;SDS011;14483;47.844;9.660;2023-03-12T05:48:27;3.55;;;1.30;;
26920;SDS011;14483;47.844;9.660;2023-03-12T05:50:55;6.00;;;2.33;;
26920;SDS011;14483;47.844;9.660;2023-03-12T05:53:21;5.32;;;1.50;;
26920;SDS011;14483;47.844;9.660;2023-03-12T05:55:48;4.00;;;1.92;;
26920;SDS011;14483;47.844;9.660;2023-03-12T05:58:14;3.67;;;1.50;;
26920;SDS011;14483;47.844;9.660;2023-03-12T06:00:41;2.35;;;1.35;;
26920;SDS011;14483;47.844;9.660;2023-03-12T06:03:08;2.85;;;1.75;;
26920;SDS011;14483;47.844;9.660;2023-03-12T06:05:35;2.55;;;1.33;;
26920;SDS011;14483;47.844;9.660;2023-03-12T06:08:03;5.35;;;2.15;;
26920;SDS011;14483;47.844;9.660;2023-03-12T06:10:29;2.88;;;1.30;;
26920;SDS011;14483;47.844;9.660;2023-03-12T06:12:56;3.22;;;1.70;;
26920;SDS011;14483;47.844;9.660;2023-03-12T06:15:23;2.90;;;1.50;;
26920;SDS011;14483;47.844;9.660;2023-03-12T06:17:49;2.67;;;1.60;;
26920;SDS011;14483;47.844;9.660;2023-03-12T06:20:15;3.20;;;1.83;;
26920;SDS011;14483;47.844;9.660;2023-03-12T06:22:42;3.00;;;1.70;;
26920;SDS011;14483;47.844;9.660;2023-03-12T06:25:10;2.55;;;1.35;;
26920;SDS011;14483;47.844;9.660;2023-03-12T06:27:36;3.20;;;1.83;;
26920;SDS011;14483;47.844;9.660;2023-03-12T06:30:03;2.08;;;1.25;;
26920;SDS011;14483;47.844;9.660;2023-03-12T06:32:29;5.10;;;1.63;;
26920;SDS011;14483;47.844;9.660;2023-03-12T06:37:58;2.90;;;1.50;;
26920;SDS011;14483;47.844;9.660;2023-03-12T06:40:26;3.60;;;2.08;;
26920;SDS011;14483;47.844;9.660;2023-03-12T06:42:52;4.00;;;1.60;;
26920;SDS011;14483;47.844;9.660;2023-03-12T06:45:18;2.78;;;1.45;;
26920;SDS011;14483;47.844;9.660;2023-03-12T06:47:45;2.40;;;1.30;;
26920;SDS011;14483;47.844;9.660;2023-03-12T06:50:11;3.60;;;1.75;;
26920;SDS011;14483;47.844;9.660;2023-03-12T06:52:37;3.42;;;1.75;;
26920;SDS011;14483;47.844;9.660;2023-03-12T06:55:05;3.67;;;1.60;;
26920;SDS011;14483;47.844;9.660;2023-03-12T06:57:32;3.35;;;1.80;;
26920;SDS011;14483;47.844;9.660;2023-03-12T06:59:59;4.32;;;2.47;;
26920;SDS011;14483;47.844;9.660;2023-03-12T07:02:25;4.10;;;2.40;;
26920;SDS011;14483;47.844;9.660;2023-03-12T07:04:52;8.00;;;2.78;;
26920;SDS011;14483;47.844;9.660;2023-03-12T07:07:18;5.45;;;3.03;;
26920;SDS011;14483;47.844;9.660;2023-03-12T07:09:44;5.18;;;2.58;;
26920;SDS011;14483;47.844;9.660;2023-03-12T07:12:11;4.78;;;2.42;;
26920;SDS011;14483;47.844;9.660;2023-03-12T07:14:38;5.13;;;2.40;;
26920;SDS011;14483;47.844;9.660;2023-03-12T07:17:05;4.50;;;2.55;;
26920;SDS011;14483;47.844;9.660;2023-03-12T07:19:31;3.80;;;2.40;;
26920;SDS011;14483;47.844;9.660;2023-03-12T07:21:57;4.85;;;2.47;;
26920;SDS011;14483;47.844;9.660;2023-03-12T07:24:24;7.15;;;2.28;;
26920;SDS011;14483;47.844;9.660;2023-03-12T07:26:50;4.13;;;2.40;;
26920;SDS011;14483;47.844;9.660;2023-03-12T07:29:16;5.45;;;2.53;;
26920;SDS011;14483;47.844;9.660;2023-03-12T07:31:44;4.57;;;2.47;;
26920;SDS011;14483;47.844;9.660;2023-03-12T07:34:10;4.22;;;2.13;;
26920;SDS011;14483;47.844;9.660;2023-03-12T07:36:37;4.78;;;2.42;;
26920;SDS011;14483;47.844;9.660;2023-03-12T07:39:03;4.22;;;2.20;;
26920;SDS011;14483;47.844;9.660;2023-03-12T07:41:30;3.17;;;2.05;;
26920;SDS011;14483;47.844;9.660;2023-03-12T07:43:56;4.32;;;2.50;;
26920;SDS011;14483;47.844;9.660;2023-03-12T07:46:23;4.30;;;2.20;;
26920;SDS011;14483;47.844;9.660;2023-03-12T07:48:50;5.43;;;2.95;;
26920;SDS011;14483;47.844;9.660;2023-03-12T07:51:17;5.18;;;2.67;;
26920;SDS011;14483;47.844;9.660;2023-03-12T07:53:43;4.35;;;2.60;;
26920;SDS011;14483;47.844;9.660;2023-03-12T07:56:09;5.15;;;2.72;;
26920;SDS011;14483;47.844;9.660;2023-03-12T07:58:36;5.72;;;2.60;;
26920;SDS011;14483;47.844;9.660;2023-03-12T08:01:03;8.55;;;3.58;;
26920;SDS011;14483;47.844;9.660;2023-03-12T08:03:30;7.28;;;3.15;;
26920;SDS011;14483;47.844;9.660;2023-03-12T08:05:59;7.53;;;3.08;;
26920;SDS011;14483;47.844;9.660;2023-03-12T08:08:26;5.57;;;2.83;;
26920;SDS011;14483;47.844;9.660;2023-03-12T08:10:52;6.15;;;3.05;;
26920;SDS011;14483;47.844;9.660;2023-03-12T08:13:19;6.45;;;3.35;;
26920;SDS011;14483;47.844;9.660;2023-03-12T08:15:47;6.65;;;3.35;;
26920;SDS011;14483;47.844;9.660;2023-03-12T08:18:14;5.78;;;3.08;;
26920;SDS011;14483;47.844;9.660;2023-03-12T08:20:40;6.50;;;3.42;;
26920;SDS011;14483;47.844;9.660;2023-03-12T08:23:08;6.18;;;3.50;;
26920;SDS011;14483;47.844;9.660;2023-03-12T08:25:34;5.85;;;3.25;;
26920;SDS011;14483;47.844;9.660;2023-03-12T08:28:01;10.25;;;4.10;;
26920;SDS011;14483;47.844;9.660;2023-03-12T08:30:33;7.35;;;3.58;;
26920;SDS011;14483;47.844;9.660;2023-03-12T08:33:00;5.80;;;3.63;;
26920;SDS011;14483;47.844;9.660;2023-03-12T08:35:26;6.88;;;3.90;;
26920;SDS011;14483;47.844;9.660;2023-03-12T08:37:53;7.72;;;3.53;;
26920;SDS011;14483;47.844;9.660;2023-03-12T08:40:22;8.32;;;3.83;;
26920;SDS011;14483;47.844;9.660;2023-03-12T08:42:48;7.15;;;3.70;;
26920;SDS011;14483;47.844;9.660;2023-03-12T08:45:15;7.50;;;4.20;;
26920;SDS011;14483;47.844;9.660;2023-03-12T08:47:41;8.50;;;4.32;;
26920;SDS011;14483;47.844;9.660;2023-03-12T08:50:09;7.38;;;3.47;;
26920;SDS011;14483;47.844;9.660;2023-03-12T08:52:35;8.20;;;3.80;;
26920;SDS011;14483;47.844;9.660;2023-03-12T08:55:02;6.97;;;3.72;;
26920;SDS011;14483;47.844;9.660;2023-03-12T08:57:31;8.52;;;3.40;;
26920;SDS011;14483;47.844;9.660;2023-03-12T08:59:57;6.22;;;3.45;;
26920;SDS011;14483;47.844;9.660;2023-03-12T09:02:24;6.50;;;3.55;;
26920;SDS011;14483;47.844;9.660;2023-03-12T09:04:50;8.15;;;4.88;;
26920;SDS011;14483;47.844;9.660;2023-03-12T09:07:16;8.45;;;4.13;;
26920;SDS011;14483;47.844;9.660;2023-03-12T09:09:43;6.53;;;3.47;;
26920;SDS011;14483;47.844;9.660;2023-03-12T09:12:09;6.05;;;3.85;;
26920;SDS011;14483;47.844;9.660;2023-03-12T09:14:37;6.85;;;3.17;;
26920;SDS011;14483;47.844;9.660;2023-03-12T09:17:04;6.95;;;4.00;;
26920;SDS011;14483;47.844;9.660;2023-03-12T09:19:30;8.32;;;4.53;;
26920;SDS011;14483;47.844;9.660;2023-03-12T09:21:56;6.00;;;3.40;;
26920;SDS011;14483;47.844;9.660;2023-03-12T09:24:23;6.70;;;3.42;;
26920;SDS011;14483;47.844;9.660;2023-03-12T09:26:49;6.05;;;3.38;;
26920;SDS011;14483;47.844;9.660;2023-03-12T09:29:15;7.53;;;4.03;;
26920;SDS011;14483;47.844;9.660;2023-03-12T09:31:43;4.45;;;2.70;;
26920;SDS011;14483;47.844;9.660;2023-03-12T09:34:09;6.72;;;3.70;;
26920;SDS011;14483;47.844;9.660;2023-03-12T09:36:36;5.70;;;3.40;;
26920;SDS011;14483;47.844;9.660;2023-03-12T09:39:02;6.60;;;3.55;;
26920;SDS011;14483;47.844;9.660;2023-03-12T09:41:29;7.80;;;4.00;;
26920;SDS011;14483;47.844;9.660;2023-03-12T09:43:57;7.32;;;2.90;;
26920;SDS011;14483;47.844;9.660;2023-03-12T09:46:26;8.73;;;4.20;;
26920;SDS011;14483;47.844;9.660;2023-03-12T09:48:55;8.30;;;4.65;;
26920;SDS011;14483;47.844;9.660;2023-03-12T09:51:23;7.13;;;3.47;;
26920;SDS011;14483;47.844;9.660;2023-03-12T09:53:53;5.75;;;3.70;;
26920;SDS011;14483;47.844;9.660;2023-03-12T09:56:21;5.75;;;3.30;;
26920;SDS011;14483;47.844;9.660;2023-03-12T09:58:47;5.47;;;2.45;;
26920;SDS011;14483;47.844;9.660;2023-03-12T10:01:21;5.22;;;3.08;;
26920;SDS011;14483;47.844;9.660;2023-03-12T10:03:55;6.07;;;3.38;;
26920;SDS011;14483;47.844;9.660;2023-03-12T10:06:24;5.50;;;3.05;;
26920;SDS011;14483;47.844;9.660;2023-03-12T10:08:55;6.95;;;3.30;;
26920;SDS011;14483;47.844;9.660;2023-03-12T10:13:52;3.83;;;2.10;;
26920;SDS011;14483;47.844;9.660;2023-03-12T10:16:25;6.53;;;3.40;;
26920;SDS011;14483;47.844;9.660;2023-03-12T10:19:01;5.53;;;3.15;;
26920;SDS011;14483;47.844;9.660;2023-03-12T10:23:58;5.05;;;2.72;;
26920;SDS011;14483;47.844;9.660;2023-03-12T10:26:28;6.88;;;3.13;;
26920;SDS011;14483;47.844;9.660;2023-03-12T10:28:56;6.22;;;3.70;;
26920;SDS011;14483;47.844;9.660;2023-03-12T10:31:24;4.38;;;2.55;;
26920;SDS011;14483;47.844;9.660;2023-03-12T10:33:54;5.00;;;2.75;;
26920;SDS011;14483;47.844;9.660;2023-03-12T10:36:23;4.78;;;3.03;;
26920;SDS011;14483;47.844;9.660;2023-03-12T10:38:50;6.03;;;3.35;;
26920;SDS011;14483;47.844;9.660;2023-03-12T10:41:18;5.53;;;2.45;;
26920;SDS011;14483;47.844;9.660;2023-03-12T10:43:45;4.68;;;3.08;;
26920;SDS011;14483;47.844;9.660;2023-03-12T10:46:24;6.35;;;2.95;;
26920;SDS011;14483;47.844;9.660;2023-03-12T10:51:22;5.07;;;2.75;;
26920;SDS011;14483;47.844;9.660;2023-03-12T10:53:49;5.30;;;3.05;;
26920;SDS011;14483;47.844;9.660;2023-03-12T10:56:16;4.88;;;2.28;;
26920;SDS011;14483;47.844;9.660;2023-03-12T10:58:44;5.60;;;2.38;;
26920;SDS011;14483;47.844;9.660;2023-03-12T11:01:15;4.10;;;1.98;;
26920;SDS011;14483;47.844;9.660;2023-03-12T11:03:44;3.58;;;2.10;;
26920;SDS011;14483;47.844;9.660;2023-03-12T11:06:18;5.70;;;2.75;;
26920;SDS011;14483;47.844;9.660;2023-03-12T11:08:46;5.47;;;2.35;;
26920;SDS011;14483;47.844;9.660;2023-03-12T11:11:29;5.10;;;2.65;;
26920;SDS011;14483;47.844;9.660;2023-03-12T11:14:04;4.30;;;2.28;;
26920;SDS011;14483;47.844;9.660;2023-03-12T11:16:30;5.07;;;2.63;;
26920;SDS011;14483;47.844;9.660;2023-03-12T11:18:57;4.38;;;2.75;;
26920;SDS011;14483;47.844;9.660;2023-03-12T11:21:25;5.25;;;1.90;;
26920;SDS011;14483;47.844;9.660;2023-03-12T11:24:04;2.38;;;1.30;;
26920;SDS011;14483;47.844;9.660;2023-03-12T11:26:33;2.83;;;1.65;;
26920;SDS011;14483;47.844;9.660;2023-03-12T11:29:01;2.40;;;1.63;;
26920;SDS011;14483;47.844;9.660;2023-03-12T11:31:28;2.03;;;1.40;;
26920;SDS011;14483;47.844;9.660;2023-03-12T11:33:56;3.05;;;1.70;;
26920;SDS011;14483;47.844;9.660;2023-03-12T11:36:28;2.80;;;1.50;;
26920;SDS011;14483;47.844;9.660;2023-03-12T11:38:57;2.13;;;1.17;;
26920;SDS011;14483;47.844;9.660;2023-03-12T11:41:32;2.45;;;1.30;;
26920;SDS011;14483;47.844;9.660;2023-03-12T11:44:08;2.83;;;1.73;;
26920;SDS011;14483;47.844;9.660;2023-03-12T11:46:41;1.85;;;1.35;;
26920;SDS011;14483;47.844;9.660;2023-03-12T11:49:16;2.70;;;1.52;;
26920;SDS011;14483;47.844;9.660;2023-03-12T11:51:48;2.83;;;1.60;;
26920;SDS011;14483;47.844;9.660;2023-03-12T11:54:24;4.40;;;1.67;;
26920;SDS011;14483;47.844;9.660;2023-03-12T11:56:57;4.05;;;1.58;;
26920;SDS011;14483;47.844;9.660;2023-03-12T11:59:28;4.65;;;2.38;;
26920;SDS011;14483;47.844;9.660;2023-03-12T12:01:58;3.15;;;1.60;;
26920;SDS011;14483;47.844;9.660;2023-03-12T12:04:34;2.95;;;1.70;;
26920;SDS011;14483;47.844;9.660;2023-03-12T12:07:05;3.33;;;1.52;;
26920;SDS011;14483;47.844;9.660;2023-03-12T12:09:35;2.83;;;1.70;;
26920;SDS011;14483;47.844;9.660;2023-03-12T12:12:11;3.83;;;1.50;;
26920;SDS011;14483;47.844;9.660;2023-03-12T12:14:47;4.32;;;1.83;;
26920;SDS011;14483;47.844;9.660;2023-03-12T12:17:18;2.03;;;1.23;;
26920;SDS011;14483;47.844;9.660;2023-03-12T12:22:35;1.98;;;1.20;;
26920;SDS011;14483;47.844;9.660;2023-03-12T12:25:16;3.67;;;1.65;;
26920;SDS011;14483;47.844;9.660;2023-03-12T12:27:49;2.83;;;1.48;;
26920;SDS011;14483;47.844;9.660;2023-03-12T12:30:17;2.83;;;1.15;;
26920;SDS011;14483;47.844;9.660;2023-03-12T12:32:52;2.45;;;1.38;;
26920;SDS011;14483;47.844;9.660;2023-03-12T12:35:24;2.60;;;1.60;;
26920;SDS011;14483;47.844;9.660;2023-03-12T12:37:53;2.53;;;1.45;;
26920;SDS011;14483;47.844;9.660;2023-03-12T12:40:21;2.85;;;1.50;;
26920;SDS011;14483;47.844;9.660;2023-03-12T12:42:52;2.28;;;1.30;;
26920;SDS011;14483;47.844;9.660;2023-03-12T12:45:20;2.13;;;1.40;;
26920;SDS011;14483;47.844;9.660;2023-03-12T12:47:48;4.78;;;1.33;;
26920;SDS011;14483;47.844;9.660;2023-03-12T12:50:17;3.08;;;1.40;;
26920;SDS011;14483;47.844;9.660;2023-03-12T12:52:46;3.05;;;1.50;;
26920;SDS011;14483;47.844;9.660;2023-03-12T12:55:15;3.70;;;1.65;;
26920;SDS011;14483;47.844;9.660;2023-03-12T12:57:45;3.10;;;1.80;;
26920;SDS011;14483;47.844;9.660;2023-03-12T13:00:20;2.40;;;1.20;;
26920;SDS011;14483;47.844;9.660;2023-03-12T13:02:49;2.88;;;1.65;;
26920;SDS011;14483;47.844;9.660;2023-03-12T13:05:17;2.67;;;1.58;;
26920;SDS011;14483;47.844;9.660;2023-03-12T13:07:44;2.80;;;1.58;;
26920;SDS011;14483;47.844;9.660;2023-03-12T13:12:53;2.15;;;1.20;;
26920;SDS011;14483;47.844;9.660;2023-03-12T13:15:34;2.08;;;1.30;;
26920;SDS011;14483;47.844;9.660;2023-03-12T13:18:05;2.28;;;1.35;;
26920;SDS011;14483;47.844;9.660;2023-03-12T13:20:35;2.50;;;1.10;;
26920;SDS011;14483;47.844;9.660;2023-03-12T13:23:16;2.30;;;1.15;;
26920;SDS011;14483;47.844;9.660;2023-03-12T13:25:48;3.97;;;1.20;;
26920;SDS011;14483;47.844;9.660;2023-03-12T13:28:31;1.87;;;1.17;;
26920;SDS011;14483;47.844;9.660;2023-03-12T13:31:01;1.02;;;0.52;;
26920;SDS011;14483;47.844;9.660;2023-03-12T13:33:40;5.93;;;1.15;;
26920;SDS011;14483;47.844;9.660;2023-03-12T13:36:19;1.95;;;0.98;;
26920;SDS011;14483;47.844;9.660;2023-03-12T13:38:52;3.20;;;1.48;;
26920;SDS011;14483;47.844;9.660;2023-03-12T13:41:29;2.47;;;0.95;;
26920;SDS011;14483;47.844;9.660;2023-03-12T13:43:55;1.45;;;0.70;;
26920;SDS011;14483;47.844;9.660;2023-03-12T13:46:39;2.70;;;1.20;;
26920;SDS011;14483;47.844;9.660;2023-03-12T13:49:10;2.08;;;1.10;;
26920;SDS011;14483;47.844;9.660;2023-03-12T13:51:45;1.67;;;0.73;;
26920;SDS011;14483;47.844;9.660;2023-03-12T13:54:14;2.00;;;0.85;;
26920;SDS011;14483;47.844;9.660;2023-03-12T13:56:43;1.83;;;0.98;;
26920;SDS011;14483;47.844;9.660;2023-03-12T13:59:12;2.17;;;0.93;;
26920;SDS011;14483;47.844;9.660;2023-03-12T14:01:46;1.83;;;0.60;;
26920;SDS011;14483;47.844;9.660;2023-03-12T14:04:14;1.67;;;0.80;;
26920;SDS011;14483;47.844;9.660;2023-03-12T14:06:48;1.90;;;0.60;;
26920;SDS011;14483;47.844;9.660;2023-03-12T14:09:17;2.25;;;0.93;;
26920;SDS011;14483;47.844;9.660;2023-03-12T14:11:53;2.03;;;0.95;;
26920;SDS011;14483;47.844;9.660;2023-03-12T14:14:28;2.75;;;1.00;;
26920;SDS011;14483;47.844;9.660;2023-03-12T14:16:58;2.47;;;1.00;;
26920;SDS011;14483;47.844;9.660;2023-03-12T14:19:26;2.42;;;0.73;;
26920;SDS011;14483;47.844;9.660;2023-03-12T14:21:53;2.08;;;0.70;;
26920;SDS011;14483;47.844;9.660;2023-03-12T14:24:22;3.58;;;0.95;;
26920;SDS011;14483;47.844;9.660;2023-03-12T14:26:49;2.80;;;0.88;;
26920;SDS011;14483;47.844;9.660;2023-03-12T14:29:18;3.00;;;0.90;;
26920;SDS011;14483;47.844;9.660;2023-03-12T14:31:45;5.15;;;0.90;;
26920;SDS011;14483;47.844;9.660;2023-03-12T14:34:15;3.00;;;0.88;;
26920;SDS011;14483;47.844;9.660;2023-03-12T14:36:45;1.77;;;0.63;;
26920;SDS011;14483;47.844;9.660;2023-03-12T14:39:19;3.10;;;0.90;;
26920;SDS011;14483;47.844;9.660;2023-03-12T14:41:47;1.80;;;0.50;;
26920;SDS011;14483;47.844;9.660;2023-03-12T14:44:19;11.80;;;1.08;;
26920;SDS011;14483;47.844;9.660;2023-03-12T14:46:47;4.28;;;0.90;;
26920;SDS011;14483;47.844;9.660;2023-03-12T14:49:21;4.85;;;0.93;;
26920;SDS011;14483;47.844;9.660;2023-03-12T14:51:47;2.33;;;0.60;;
26920;SDS011;14483;47.844;9.660;2023-03-12T14:54:15;2.78;;;0.70;;
26920;SDS011;14483;47.844;9.660;2023-03-12T14:56:42;11.80;;;1.08;;
26920;SDS011;14483;47.844;9.660;2023-03-12T14:59:19;3.35;;;0.65;;
26920;SDS011;14483;47.844;9.660;2023-03-12T15:01:45;5.22;;;0.70;;
26920;SDS011;14483;47.844;9.660;2023-03-12T15:04:13;4.05;;;0.47;;
26920;SDS011;14483;47.844;9.660;2023-03-12T15:06:43;3.45;;;0.75;;
26920;SDS011;14483;47.844;9.660;2023-03-12T15:09:13;2.67;;;0.90;;
26920;SDS011;14483;47.844;9.660;2023-03-12T15:11:41;3.55;;;0.43;;